createdAt,value
2024-01-06T00:00:02.648Z,6.10
2024-01-06T00:02:39.378Z,6.30
2024-01-06T00:05:10.211Z,7.60
2024-01-06T00:07:41.183Z,7.63
2024-01-06T00:10:09.839Z,8.00
2024-01-06T00:12:38.266Z,9.30
2024-01-06T00:15:07.275Z,9.47
2024-01-06T00:17:35.818Z,9.73
2024-01-06T00:20:04.309Z,9.70
2024-01-06T00:22:32.668Z,9.27
2024-01-06T00:25:02.659Z,10.77
2024-01-06T00:27:31.125Z,10.10
2024-01-06T00:30:01.632Z,11.00
2024-01-06T00:32:35.813Z,9.87
2024-01-06T00:35:05.882Z,10.13
2024-01-06T00:37:34.215Z,10.27
2024-01-06T00:40:06.284Z,10.30
2024-01-06T00:42:34.640Z,10.67
2024-01-06T00:45:03.010Z,10.40
2024-01-06T00:47:31.469Z,10.67
2024-01-06T00:49:59.803Z,11.63
2024-01-06T00:52:28.060Z,10.70
2024-01-06T00:54:56.337Z,11.10
2024-01-06T00:57:26.022Z,11.67
2024-01-06T00:59:54.317Z,10.53
2024-01-06T01:02:22.608Z,11.10
2024-01-06T01:04:50.970Z,10.00
2024-01-06T01:07:19.408Z,10.70
2024-01-06T01:09:47.771Z,10.50
2024-01-06T01:12:16.149Z,11.60
2024-01-06T01:14:45.880Z,11.30
2024-01-06T01:17:14.341Z,11.70
2024-01-06T01:19:42.829Z,11.27
2024-01-06T01:22:11.141Z,11.33
2024-01-06T01:24:41.874Z,10.73
2024-01-06T01:27:13.128Z,10.80
2024-01-06T01:29:52.826Z,11.33
2024-01-06T01:32:22.661Z,10.97
2024-01-06T01:35:00.104Z,11.43
2024-01-06T01:37:37.485Z,12.17
2024-01-06T01:40:06.195Z,13.17
2024-01-06T01:42:34.465Z,13.53
2024-01-06T01:45:02.898Z,12.97
2024-01-06T01:47:32.768Z,13.37
2024-01-06T01:50:01.305Z,13.07
2024-01-06T01:52:29.678Z,12.93
2024-01-06T01:54:57.945Z,12.07
2024-01-06T01:57:32.120Z,12.63
2024-01-06T02:00:09.190Z,12.70
2024-01-06T02:02:54.246Z,10.33
2024-01-06T02:05:22.621Z,10.57
2024-01-06T02:07:52.128Z,9.70
2024-01-06T02:10:20.594Z,9.77
2024-01-06T02:12:48.991Z,9.20
2024-01-06T02:15:17.372Z,9.57
2024-01-06T02:17:47.128Z,8.67
2024-01-06T02:20:17.339Z,9.37
2024-01-06T02:22:46.901Z,8.77
2024-01-06T02:25:15.285Z,8.37
2024-01-06T02:27:43.794Z,8.47
2024-01-06T02:30:12.614Z,8.67
2024-01-06T02:32:41.023Z,9.13
2024-01-06T02:35:09.749Z,8.80
2024-01-06T02:37:38.066Z,7.97
2024-01-06T02:40:08.426Z,8.23
2024-01-06T02:42:36.735Z,8.73
2024-01-06T02:45:05.187Z,8.23
2024-01-06T02:47:33.486Z,7.97
2024-01-06T02:50:01.864Z,8.17
2024-01-06T02:52:30.362Z,7.97
2024-01-06T02:54:58.626Z,8.17
2024-01-06T02:57:28.272Z,8.40
2024-01-06T02:59:56.631Z,7.67
2024-01-06T03:02:25.065Z,8.03
2024-01-06T03:04:53.647Z,7.83
2024-01-06T03:07:21.936Z,8.20
2024-01-06T03:09:50.343Z,7.80
2024-01-06T03:12:18.927Z,8.77
2024-01-06T03:14:48.598Z,9.07
2024-01-06T03:17:16.955Z,7.90
2024-01-06T03:19:45.334Z,7.87
2024-01-06T03:22:13.751Z,7.03
2024-01-06T03:24:43.026Z,7.13
2024-01-06T03:27:11.374Z,7.27
2024-01-06T03:29:39.646Z,7.53
2024-01-06T03:32:18.317Z,7.17
2024-01-06T03:34:46.665Z,6.50
2024-01-06T03:37:15.050Z,7.73
2024-01-06T03:39:43.325Z,7.50
2024-01-06T03:42:11.652Z,7.93
2024-01-06T03:44:39.904Z,7.77
2024-01-06T03:47:08.444Z,6.80
2024-01-06T03:49:38.269Z,7.10
2024-01-06T03:52:07.090Z,6.20
2024-01-06T03:54:35.488Z,6.17
2024-01-06T03:57:03.776Z,6.83
2024-01-06T03:59:32.056Z,6.70
2024-01-06T04:02:00.610Z,6.27
2024-01-06T04:04:28.854Z,6.77
2024-01-06T04:06:58.522Z,6.73
2024-01-06T04:09:26.780Z,7.63
2024-01-06T04:11:55.061Z,6.77
2024-01-06T04:14:23.373Z,7.30
2024-01-06T04:16:52.493Z,6.50
2024-01-06T04:19:26.283Z,7.40
2024-01-06T04:21:56.557Z,7.13
2024-01-06T04:24:26.355Z,7.50
2024-01-06T04:26:54.868Z,7.60
2024-01-06T04:29:23.091Z,8.17
2024-01-06T04:31:51.435Z,8.43
2024-01-06T04:34:19.938Z,8.67
2024-01-06T04:36:49.620Z,8.53
2024-01-06T04:39:17.958Z,7.43
2024-01-06T04:41:47.666Z,6.73
2024-01-06T04:44:15.880Z,7.30
2024-01-06T04:46:44.171Z,7.03
2024-01-06T04:49:13.297Z,8.30
2024-01-06T04:51:41.890Z,8.53
2024-01-06T04:54:10.336Z,8.43
2024-01-06T04:56:38.714Z,8.53
2024-01-06T04:59:08.714Z,8.77
2024-01-06T05:01:37.018Z,8.93
2024-01-06T05:04:05.526Z,8.90
2024-01-06T05:06:33.937Z,9.67
2024-01-06T05:09:02.364Z,9.40
2024-01-06T05:11:30.579Z,10.03
2024-01-06T05:13:58.853Z,10.87
2024-01-06T05:16:28.777Z,10.90
2024-01-06T05:18:57.212Z,12.03
2024-01-06T05:21:25.611Z,11.73
2024-01-06T05:23:53.878Z,12.27
2024-01-06T05:26:22.138Z,12.30
2024-01-06T05:28:51.229Z,12.13
2024-01-06T05:31:19.543Z,11.77
2024-01-06T05:33:49.377Z,12.17
2024-01-06T05:36:21.428Z,12.97
2024-01-06T05:38:53.054Z,11.73
2024-01-06T05:41:21.801Z,11.13
2024-01-06T05:43:50.105Z,12.23
2024-01-06T05:46:23.098Z,11.30
2024-01-06T05:48:52.935Z,13.17
2024-01-06T05:51:21.432Z,12.50
2024-01-06T05:53:49.765Z,11.93
2024-01-06T05:56:25.518Z,11.73
2024-01-06T05:58:54.070Z,11.70
2024-01-06T06:01:23.919Z,10.53
2024-01-06T06:03:54.085Z,10.83
2024-01-06T06:06:22.491Z,10.60
2024-01-06T06:08:50.860Z,10.07
2024-01-06T06:11:19.749Z,10.03
2024-01-06T06:13:48.057Z,10.10
2024-01-06T06:16:16.321Z,10.67
2024-01-06T06:18:44.647Z,11.27
2024-01-06T06:21:14.287Z,10.67
2024-01-06T06:23:42.670Z,11.13
2024-01-06T06:26:12.865Z,10.53
2024-01-06T06:28:41.109Z,12.07
2024-01-06T06:31:09.727Z,10.90
2024-01-06T06:33:38.300Z,10.77
2024-01-06T06:36:07.050Z,12.80
2024-01-06T06:38:36.656Z,12.40
2024-01-06T06:41:05.035Z,11.83
2024-01-06T06:43:33.300Z,12.10
2024-01-06T06:46:01.598Z,13.63
2024-01-06T06:48:30.941Z,12.87
2024-01-06T06:50:59.236Z,14.33
2024-01-06T06:53:27.503Z,14.70
2024-01-06T06:55:57.147Z,13.57
2024-01-06T06:58:25.421Z,14.17
2024-01-06T07:00:55.494Z,14.10
2024-01-06T07:03:23.952Z,13.80
2024-01-06T07:05:52.355Z,12.10
2024-01-06T07:08:20.644Z,13.10
2024-01-06T07:10:48.920Z,12.27
2024-01-06T07:13:18.571Z,13.67
2024-01-06T07:15:47.178Z,12.03
2024-01-06T07:18:15.596Z,12.83
2024-01-06T07:20:43.990Z,12.40
2024-01-06T07:23:12.253Z,12.07
2024-01-06T07:25:40.598Z,12.77
2024-01-06T07:28:09.300Z,13.10
2024-01-06T07:30:39.180Z,13.03
2024-01-06T07:33:07.522Z,12.70
2024-01-06T07:35:35.929Z,12.77
2024-01-06T07:38:04.183Z,11.97
2024-01-06T07:40:32.464Z,12.33
2024-01-06T07:43:00.702Z,12.40
2024-01-06T07:45:29.066Z,11.17
2024-01-06T07:47:58.793Z,11.40
2024-01-06T07:50:27.185Z,11.97
2024-01-06T07:52:55.436Z,11.83
2024-01-06T07:55:23.711Z,10.90
2024-01-06T07:57:52.066Z,10.40
2024-01-06T08:00:20.607Z,10.47
2024-01-06T08:02:48.968Z,10.20
2024-01-06T08:05:18.667Z,10.67
2024-01-06T08:07:46.979Z,10.20
2024-01-06T08:10:15.298Z,9.73
2024-01-06T08:12:43.867Z,10.70
2024-01-06T08:15:12.358Z,10.97
2024-01-06T08:17:41.964Z,10.00
2024-01-06T08:20:10.846Z,10.63
2024-01-06T08:22:42.372Z,10.33
2024-01-06T08:25:11.929Z,11.03
2024-01-06T08:27:40.228Z,11.13
2024-01-06T08:30:09.391Z,10.37
2024-01-06T08:32:41.565Z,11.03
2024-01-06T08:35:10.475Z,10.27
2024-01-06T08:37:40.140Z,11.20
2024-01-06T08:40:09.051Z,10.73
2024-01-06T08:42:37.346Z,10.80
2024-01-06T08:45:06.089Z,10.30
2024-01-06T08:47:34.458Z,11.23
2024-01-06T08:50:02.864Z,10.53
2024-01-06T08:52:31.205Z,10.67
2024-01-06T08:55:00.867Z,10.63
2024-01-06T08:57:29.461Z,10.37
2024-01-06T08:59:57.740Z,10.50
2024-01-06T09:02:26.617Z,9.73
2024-01-06T09:04:55.015Z,10.03
2024-01-06T09:07:23.300Z,8.70
2024-01-06T09:09:52.750Z,8.33
2024-01-06T09:12:22.674Z,8.70
2024-01-06T09:14:50.997Z,9.23
2024-01-06T09:17:19.360Z,9.70
2024-01-06T09:19:49.005Z,9.90
2024-01-06T09:22:17.406Z,10.77
2024-01-06T09:24:45.693Z,10.10
2024-01-06T09:27:14.167Z,10.20
2024-01-06T09:29:43.822Z,10.47
2024-01-06T09:32:14.242Z,9.93
2024-01-06T09:34:42.597Z,10.53
2024-01-06T09:37:10.937Z,9.07
2024-01-06T09:39:40.593Z,10.00
2024-01-06T09:42:09.806Z,9.03
2024-01-06T09:44:38.070Z,8.90
2024-01-06T09:47:08.687Z,8.00
2024-01-06T09:49:39.350Z,8.73
2024-01-06T09:52:12.549Z,8.50
2024-01-06T09:54:42.492Z,9.03
2024-01-06T09:57:10.793Z,8.00
2024-01-06T09:59:39.340Z,8.00
2024-01-06T10:02:09.451Z,7.73
2024-01-06T10:04:37.829Z,7.63
2024-01-06T10:07:06.876Z,7.83
2024-01-06T10:09:35.331Z,8.60
2024-01-06T10:12:03.637Z,7.40
2024-01-06T10:14:31.907Z,8.53
2024-01-06T10:17:00.199Z,7.13
2024-01-06T10:19:30.458Z,7.63
2024-01-06T10:22:03.074Z,7.93
2024-01-06T10:24:32.920Z,6.93
2024-01-06T10:27:02.257Z,7.27
2024-01-06T10:29:30.670Z,7.43
2024-01-06T10:31:59.039Z,6.63
2024-01-06T10:34:27.822Z,6.67
2024-01-06T10:36:57.798Z,7.00
2024-01-06T10:39:26.205Z,7.30
2024-01-06T10:41:55.052Z,6.70
2024-01-06T10:44:24.246Z,7.67
2024-01-06T10:46:53.518Z,7.80
2024-01-06T10:49:23.565Z,7.53
2024-01-06T10:51:52.040Z,8.77
2024-01-06T10:54:22.583Z,8.10
2024-01-06T10:56:51.677Z,8.23
2024-01-06T10:59:21.085Z,9.00
2024-01-06T11:01:49.957Z,8.90
2024-01-06T11:04:18.841Z,8.03
2024-01-06T11:06:48.584Z,8.53
2024-01-06T11:09:19.118Z,8.63
2024-01-06T11:11:48.893Z,7.70
2024-01-06T11:14:21.007Z,7.57
2024-01-06T11:16:49.400Z,7.50
2024-01-06T11:19:37.980Z,7.23
2024-01-06T11:22:21.063Z,7.67
2024-01-06T11:24:50.463Z,7.23
2024-01-06T11:27:24.236Z,8.07
2024-01-06T11:29:55.468Z,7.27
2024-01-06T11:32:28.439Z,8.03
2024-01-06T11:34:58.685Z,7.57
2024-01-06T11:37:26.539Z,7.23
2024-01-06T11:39:55.412Z,6.57
2024-01-06T11:42:34.217Z,6.80
2024-01-06T11:45:04.473Z,6.27
2024-01-06T11:47:32.982Z,5.60
2024-01-06T11:50:04.700Z,5.87
2024-01-06T11:52:33.260Z,6.00
2024-01-06T11:55:01.808Z,5.70
2024-01-06T11:57:34.656Z,5.60
2024-01-06T12:00:05.365Z,6.53
2024-01-06T12:02:33.768Z,6.20
2024-01-06T12:05:02.229Z,5.60
2024-01-06T12:07:32.812Z,5.87
2024-01-06T12:10:04.099Z,6.10
2024-01-06T12:12:33.990Z,6.47
2024-01-06T12:15:02.361Z,5.73
2024-01-06T12:17:31.823Z,6.77
2024-01-06T12:20:01.358Z,5.70
2024-01-06T12:22:30.014Z,5.70
2024-01-06T12:24:58.393Z,6.20
2024-01-06T12:27:27.513Z,6.67
2024-01-06T12:29:57.217Z,5.60
2024-01-06T12:32:26.378Z,5.93
2024-01-06T12:34:54.798Z,5.50
2024-01-06T12:37:23.117Z,5.67
2024-01-06T12:39:53.071Z,5.83
2024-01-06T12:42:24.994Z,5.93
2024-01-06T12:44:53.476Z,6.03
2024-01-06T12:47:23.347Z,5.57
2024-01-06T12:49:51.834Z,6.17
2024-01-06T12:52:20.159Z,5.63
2024-01-06T12:54:48.696Z,5.37
2024-01-06T12:57:17.148Z,5.23
2024-01-06T12:59:45.573Z,5.50
2024-01-06T13:02:14.052Z,5.60
2024-01-06T13:04:44.483Z,6.30
2024-01-06T13:07:12.849Z,5.97
2024-01-06T13:09:41.864Z,5.47
2024-01-06T13:12:10.423Z,6.13
2024-01-06T13:14:39.435Z,6.70
2024-01-06T13:17:10.105Z,7.50
2024-01-06T13:19:38.490Z,8.20
2024-01-06T13:22:08.514Z,7.83
2024-01-06T13:24:36.855Z,7.83
2024-01-06T13:27:05.801Z,7.87
2024-01-06T13:29:34.459Z,8.60
2024-01-06T13:32:03.012Z,8.67
2024-01-06T13:34:31.666Z,8.03
2024-01-06T13:37:00.170Z,9.57
2024-01-06T13:39:29.906Z,9.43
2024-01-06T13:41:58.206Z,8.90
2024-01-06T13:44:26.517Z,10.10
2024-01-06T13:46:55.903Z,9.63
2024-01-06T13:49:24.847Z,9.23
2024-01-06T13:51:53.505Z,9.67
2024-01-06T13:54:21.891Z,9.90
2024-01-06T13:56:53.080Z,10.13
2024-01-06T13:59:21.401Z,8.93
2024-01-06T14:01:49.774Z,8.30
2024-01-06T14:04:18.319Z,7.10
2024-01-06T14:06:49.100Z,7.33
2024-01-06T14:09:17.686Z,7.10
2024-01-06T14:11:46.243Z,8.77
2024-01-06T14:14:15.867Z,7.23
2024-01-06T14:16:47.867Z,8.27
2024-01-06T14:19:16.453Z,10.50
2024-01-06T14:21:47.674Z,11.13
2024-01-06T14:24:15.970Z,11.67
2024-01-06T14:26:44.442Z,13.07
2024-01-06T14:29:17.353Z,11.13
2024-01-06T14:31:47.152Z,11.27
2024-01-06T14:34:15.877Z,12.00
2024-01-06T14:36:48.688Z,12.63
2024-01-06T14:39:20.008Z,10.80
2024-01-06T14:41:48.653Z,11.10
2024-01-06T14:44:17.055Z,12.60
2024-01-06T14:46:46.713Z,13.07
2024-01-06T14:49:15.212Z,12.70
2024-01-06T14:51:43.520Z,13.47
2024-01-06T14:54:12.846Z,13.80
2024-01-06T14:56:42.042Z,12.67
2024-01-06T14:59:10.467Z,13.17
2024-01-06T15:01:39.067Z,12.27
2024-01-06T15:04:08.989Z,13.13
2024-01-06T15:06:37.453Z,12.93
2024-01-06T15:09:05.805Z,11.67
2024-01-06T15:11:34.147Z,11.60
2024-01-06T15:14:05.694Z,12.10
2024-01-06T15:16:34.082Z,13.20
2024-01-06T15:19:02.518Z,12.20
2024-01-06T15:21:34.963Z,12.27
2024-01-06T15:24:03.554Z,11.77
2024-01-06T15:26:31.968Z,11.23
2024-01-06T15:29:01.708Z,11.97
2024-01-06T15:31:30.555Z,12.40
2024-01-06T15:33:59.166Z,12.17
2024-01-06T15:36:32.111Z,11.30
2024-01-06T15:39:00.553Z,12.13
2024-01-06T15:42:25.086Z,11.10
2024-01-06T15:45:22.321Z,11.20
2024-01-06T15:47:50.790Z,9.57
2024-01-06T15:50:19.291Z,10.80
2024-01-06T15:52:49.295Z,10.50
2024-01-06T15:55:28.391Z,11.33
2024-01-06T15:57:56.811Z,13.10
2024-01-06T16:00:25.237Z,11.97
2024-01-06T16:02:53.736Z,11.13
2024-01-06T16:05:22.806Z,10.63
2024-01-06T16:07:53.453Z,9.87
2024-01-06T16:10:22.963Z,9.63
2024-01-06T16:12:52.443Z,9.07
2024-01-06T16:15:21.645Z,9.53
2024-01-06T16:17:50.116Z,10.33
2024-01-06T16:20:18.605Z,9.23
2024-01-06T16:22:47.392Z,10.93
2024-01-06T16:25:17.335Z,9.70
2024-01-06T16:27:45.787Z,11.40
2024-01-06T16:30:14.879Z,12.50
2024-01-06T16:32:43.322Z,12.50
2024-01-06T16:35:11.773Z,13.40
2024-01-06T16:37:40.406Z,14.77
2024-01-06T16:40:11.447Z,14.23
2024-01-06T16:42:41.576Z,13.13
2024-01-06T16:45:10.471Z,13.73
2024-01-06T16:47:39.281Z,14.07
2024-01-06T16:50:08.598Z,13.33
2024-01-06T16:52:37.453Z,13.53
2024-01-06T16:55:06.219Z,13.13
2024-01-06T16:57:34.916Z,13.87
2024-01-06T17:00:06.121Z,14.57
2024-01-06T17:02:34.714Z,15.47
2024-01-06T17:05:03.213Z,14.47
2024-01-06T17:07:31.785Z,13.93
2024-01-06T17:10:02.056Z,14.47
2024-01-06T17:12:30.538Z,13.73
2024-01-06T17:14:59.016Z,12.27
2024-01-06T17:17:29.950Z,12.97
2024-01-06T17:19:58.593Z,13.73
2024-01-06T17:22:27.062Z,12.73
2024-01-06T17:24:55.396Z,14.03
2024-01-06T17:27:24.191Z,14.27
2024-01-06T17:29:53.372Z,15.03
2024-01-06T17:32:21.771Z,13.47
2024-01-06T17:34:51.513Z,14.60
2024-01-06T17:37:19.995Z,14.53
2024-01-06T17:39:48.380Z,14.23
2024-01-06T17:42:16.762Z,14.50
2024-01-06T17:44:47.286Z,14.17
2024-01-06T17:47:16.316Z,15.37
2024-01-06T17:49:44.757Z,15.07
2024-01-06T17:52:14.586Z,14.77
2024-01-06T17:54:44.755Z,16.03
2024-01-06T17:57:18.859Z,15.37
2024-01-06T17:59:47.523Z,15.80
2024-01-06T18:02:16.393Z,17.30
2024-01-06T18:04:44.904Z,16.60
2024-01-06T18:07:14.783Z,16.33
2024-01-06T18:09:43.326Z,16.90
2024-01-06T18:12:11.796Z,15.93
2024-01-06T18:14:40.422Z,17.77
2024-01-06T18:17:09.409Z,16.90
2024-01-06T18:19:37.938Z,17.13
2024-01-06T18:22:06.551Z,17.37
2024-01-06T18:24:36.389Z,16.50
2024-01-06T18:27:04.804Z,16.93
2024-01-06T18:29:35.116Z,16.10
2024-01-06T18:32:03.622Z,16.83
2024-01-06T18:34:32.508Z,16.03
2024-01-06T18:37:01.092Z,15.53
2024-01-06T18:39:29.585Z,17.17
2024-01-06T18:41:59.401Z,16.13
2024-01-06T18:44:27.839Z,16.23
2024-01-06T18:46:56.437Z,16.97
2024-01-06T18:49:24.990Z,16.27
2024-01-06T18:51:53.412Z,16.40
2024-01-06T18:54:30.931Z,15.47
2024-01-06T18:57:04.612Z,15.70
2024-01-06T18:59:33.176Z,16.67
2024-01-06T19:02:01.611Z,14.90
2024-01-06T19:04:29.981Z,16.23
2024-01-06T19:06:58.441Z,16.17
2024-01-06T19:09:27.458Z,15.27
2024-01-06T19:11:55.886Z,16.70
2024-01-06T19:14:25.672Z,16.23
2024-01-06T19:16:54.376Z,16.27
2024-01-06T19:19:23.175Z,16.13
2024-01-06T19:21:51.763Z,16.73
2024-01-06T19:24:27.962Z,16.43
2024-01-06T19:27:01.643Z,17.30
2024-01-06T19:29:33.920Z,17.17
2024-01-06T19:32:06.466Z,16.47
2024-01-06T19:34:38.016Z,17.60
2024-01-06T19:37:07.119Z,16.43
2024-01-06T19:39:35.825Z,17.20
2024-01-06T19:42:04.654Z,16.90
2024-01-06T19:44:34.536Z,17.10
2024-01-06T19:47:03.129Z,14.73
2024-01-06T19:49:31.997Z,16.30
2024-01-06T19:52:00.719Z,16.93
2024-01-06T19:54:29.582Z,17.53
2024-01-06T19:56:58.993Z,16.23
2024-01-06T19:59:27.667Z,15.10
2024-01-06T20:01:57.752Z,15.47
2024-01-06T20:04:27.354Z,16.57
2024-01-06T20:06:55.974Z,16.97
2024-01-06T20:09:24.720Z,16.27
2024-01-06T20:11:55.838Z,18.43
2024-01-06T20:14:25.635Z,16.43
2024-01-06T20:16:57.975Z,19.40
2024-01-06T20:19:28.023Z,17.10
2024-01-06T20:21:56.692Z,18.57
2024-01-06T20:24:25.757Z,18.47
2024-01-06T20:26:57.731Z,17.87
2024-01-06T20:29:28.481Z,16.90
2024-01-06T20:31:59.171Z,18.37
2024-01-06T20:34:29.708Z,16.60
2024-01-06T20:36:58.447Z,17.47
2024-01-06T20:39:27.005Z,16.20
2024-01-06T20:41:55.803Z,16.40
2024-01-06T20:44:24.274Z,16.50
2024-01-06T20:46:54.741Z,17.17
2024-01-06T20:49:24.210Z,16.80
2024-01-06T20:51:56.441Z,14.60
2024-01-06T20:54:25.896Z,14.60
2024-01-06T20:56:54.809Z,14.50
2024-01-06T20:59:23.317Z,14.33
2024-01-06T21:01:52.202Z,12.67
2024-01-06T21:04:20.556Z,12.87
2024-01-06T21:06:49.120Z,12.20
2024-01-06T21:09:20.464Z,13.03
2024-01-06T21:11:48.880Z,12.30
2024-01-06T21:14:17.613Z,13.33
2024-01-06T21:16:45.995Z,12.97
2024-01-06T21:19:14.455Z,12.70
2024-01-06T21:21:45.097Z,13.40
2024-01-06T21:24:13.936Z,13.47
2024-01-06T21:26:43.795Z,13.17
2024-01-06T21:29:12.444Z,13.87
2024-01-06T21:31:41.375Z,13.27
2024-01-06T21:34:10.132Z,12.33
2024-01-06T21:36:40.246Z,12.80
2024-01-06T21:39:08.671Z,12.43
2024-01-06T21:41:37.032Z,13.60
2024-01-06T21:44:06.896Z,13.50
2024-01-06T21:46:35.384Z,14.20
2024-01-06T21:49:04.146Z,13.80
2024-01-06T21:51:32.845Z,13.63
2024-01-06T21:54:02.784Z,13.70
2024-01-06T21:56:31.272Z,13.03
2024-01-06T21:58:59.631Z,12.73
2024-01-06T22:01:29.433Z,13.33
2024-01-06T22:03:57.923Z,12.53
2024-01-06T22:06:26.390Z,12.57
2024-01-06T22:08:55.421Z,12.90
2024-01-06T22:11:23.938Z,12.80
2024-01-06T22:13:52.334Z,15.23
2024-01-06T22:16:20.813Z,14.77
2024-01-06T22:18:51.512Z,15.93
2024-01-06T22:21:20.010Z,15.63
2024-01-06T22:23:48.441Z,15.87
2024-01-06T22:26:16.820Z,15.93
2024-01-06T22:28:45.138Z,16.37
2024-01-06T22:31:13.583Z,16.03
2024-01-06T22:33:42.103Z,16.10
2024-01-06T22:36:14.580Z,15.67
2024-01-06T22:38:52.174Z,15.00
2024-01-06T22:41:23.768Z,15.30
2024-01-06T22:43:52.151Z,16.70
2024-01-06T22:46:21.904Z,17.13
2024-01-06T22:48:51.296Z,17.53
2024-01-06T22:51:21.427Z,17.63
2024-01-06T22:53:50.334Z,16.57
2024-01-06T22:56:18.953Z,16.70
2024-01-06T22:58:47.403Z,17.83
2024-01-06T23:01:15.930Z,17.63
2024-01-06T23:03:44.381Z,17.80
2024-01-06T23:06:12.909Z,17.13
2024-01-06T23:08:43.325Z,18.70
2024-01-06T23:11:13.301Z,18.13
2024-01-06T23:13:41.605Z,20.30
2024-01-06T23:16:10.254Z,18.57
2024-01-06T23:18:38.840Z,19.17
2024-01-06T23:21:07.736Z,18.97
2024-01-06T23:23:36.181Z,17.37
2024-01-06T23:26:06.100Z,17.57
2024-01-06T23:28:34.492Z,17.17
2024-01-06T23:31:03.022Z,18.33
2024-01-06T23:33:33.446Z,18.07
2024-01-06T23:36:01.959Z,17.10
2024-01-06T23:38:30.409Z,16.70
2024-01-06T23:40:58.740Z,18.17
2024-01-06T23:43:28.504Z,16.83
2024-01-06T23:45:56.960Z,17.87
2024-01-06T23:48:25.675Z,18.13
2024-01-06T23:50:54.434Z,18.13
2024-01-06T23:53:22.860Z,18.40
2024-01-06T23:55:51.193Z,21.00
2024-01-06T23:58:19.686Z,17.80
